Time;durP1;ratioP1;P1;durP2;ratioP2;P2;SDS_P1;SDS_P2;PMS_P1;PMS_P2;Temp;Humidity;BMP_temperature;BMP_pressure;BME280_temperature;BME280_humidity;BME280_pressure;Samples;Min_cycle;Max_cycle;Signal;HPM_P1;HPM_P2
2023/04/10 00:04:13;;;;;;;26.05;15.20;;;;;;;7.76;56.79;100534.22;7821107;32;40019;-88
2023/04/10 00:08:30;;;;;;;27.05;15.07;;;;;;;7.57;56.97;100522.63;7821195;31;40019;-89
2023/04/10 00:12:46;;;;;;;28.58;14.85;;;;;;;7.55;57.04;100521.22;7820785;32;37865;-88
2023/04/10 00:17:02;;;;;;;24.58;14.87;;;;;;;7.51;56.80;100516.25;7820534;32;37072;-88
2023/04/10 00:21:18;;;;;;;26.08;15.00;;;;;;;7.48;56.67;100508.56;7820834;32;39500;-89
2023/04/10 00:25:35;;;;;;;24.58;13.95;;;;;;;7.47;56.57;100509.62;7820411;32;40061;-89
2023/04/10 00:29:51;;;;;;;29.80;14.40;;;;;;;7.31;56.87;100513.00;7820683;32;37919;-88
2023/04/10 00:34:07;;;;;;;30.55;14.55;;;;;;;7.10;57.55;100514.38;7831511;31;37138;-88
2023/04/10 00:38:24;;;;;;;23.12;14.10;;;;;;;7.18;57.13;100507.81;7848028;31;39591;-87
2023/04/10 00:42:40;;;;;;;27.45;15.00;;;;;;;7.08;57.91;100511.91;7851144;31;40721;-89
2023/04/10 00:46:56;;;;;;;24.98;15.60;;;;;;;7.13;58.02;100509.31;7843162;31;38669;-87
2023/04/10 00:51:13;;;;;;;24.45;14.80;;;;;;;7.05;58.14;100504.22;7823745;32;37213;-89
2023/04/10 00:55:29;;;;;;;26.33;14.70;;;;;;;7.14;57.91;100504.75;7824192;32;39291;-87
2023/04/10 00:59:47;;;;;;;23.17;13.85;;;;;;;7.07;57.74;100496.69;7822700;32;39869;-88
2023/04/10 01:04:03;;;;;;;26.65;15.57;;;;;;;7.10;57.31;100488.06;7823550;32;38728;-88
2023/04/10 01:08:38;;;;;;;26.60;14.85;;;;;;;7.01;58.06;100492.19;7823194;32;36772;-88
2023/04/10 01:13:10;;;;;;;24.92;13.40;;;;;;;6.80;58.76;100492.72;7823617;32;39249;-89
2023/04/10 01:17:49;;;;;;;27.15;14.25;;;;;;;7.00;57.60;100487.81;7822569;32;39834;-89
2023/04/10 01:22:10;;;;;;;28.35;14.55;;;;;;;6.84;57.94;100493.91;7824050;32;38085;-85
2023/04/10 01:26:54;;;;;;;25.75;15.07;;;;;;;6.72;58.22;100483.00;7821533;31;37229;-89
2023/04/10 01:31:14;;;;;;;25.30;14.35;;;;;;;6.79;62.04;100497.28;7822237;32;39377;-88
2023/04/10 01:35:32;;;;;;;28.10;15.10;;;;;;;6.70;60.38;100490.53;7831123;31;40853;-89
2023/04/10 01:40:07;;;;;;;25.83;15.02;;;;;;;6.90;59.12;100493.00;7850554;31;37339;-85
2023/04/10 01:44:28;;;;;;;26.40;14.48;;;;;;;6.89;58.85;100494.03;7850380;31;37935;-88
2023/04/10 01:48:48;;;;;;;26.75;15.35;;;;;;;6.92;58.56;100488.97;7850434;31;39464;-87
2023/04/10 01:53:06;;;;;;;24.98;14.27;;;;;;;6.71;59.28;100495.75;7848674;31;39943;-87
2023/04/10 01:57:22;;;;;;;25.27;14.55;;;;;;;6.77;59.23;100494.81;7849845;31;37850;-87
2023/04/10 02:01:38;;;;;;;25.12;13.62;;;;;;;6.91;58.92;100489.22;7843010;31;37977;-88
2023/04/10 02:06:09;;;;;;;27.00;14.75;;;;;;;6.84;58.64;100496.62;7823736;32;39466;-87
2023/04/10 02:10:49;;;;;;;27.17;15.18;;;;;;;6.89;58.29;100494.03;7822402;31;39639;-88
2023/04/10 02:15:07;;;;;;;22.37;12.98;;;;;;;6.71;58.48;100490.31;7814771;32;38627;-86
2023/04/10 02:19:25;;;;;;;25.08;14.38;;;;;;;6.75;58.01;100496.91;7823174;32;37134;-87
2023/04/10 02:23:42;;;;;;;26.98;14.52;;;;;;;6.64;58.57;100495.00;7830868;32;38951;-87
2023/04/10 02:28:02;;;;;;;23.58;13.50;;;;;;;6.68;58.20;100484.53;7826747;32;40448;-87
2023/04/10 02:32:18;;;;;;;22.65;13.32;;;;;;;6.74;57.85;100486.31;7823172;32;37940;-88
2023/04/10 02:36:38;;;;;;;26.15;14.80;;;;;;;6.82;57.64;100477.03;7822678;31;37968;-88
2023/04/10 02:40:54;;;;;;;26.77;14.32;;;;;;;6.70;58.08;100471.56;7823574;32;40240;-86
2023/04/10 02:45:11;;;;;;;26.52;14.02;;;;;;;6.57;58.56;100483.41;7835403;31;40195;-87
2023/04/10 02:49:27;;;;;;;26.00;15.10;;;;;;;6.47;58.50;100475.84;7850025;31;37848;-87
2023/04/10 02:53:43;;;;;;;25.17;14.32;;;;;;;6.34;58.72;100468.69;7850071;31;37683;-86
2023/04/10 02:58:00;;;;;;;28.02;15.63;;;;;;;6.53;57.85;100474.91;7850039;31;40237;-88
2023/04/10 03:02:16;;;;;;;28.58;14.87;;;;;;;6.29;58.44;100476.66;7850190;31;41153;-86
2023/04/10 03:06:33;;;;;;;26.12;15.07;;;;;;;6.34;58.68;100484.94;7831497;31;38060;-88
2023/04/10 03:10:49;;;;;;;25.83;14.18;;;;;;;6.48;57.85;100485.59;7822188;32;36865;-85
2023/04/10 03:15:06;;;;;;;26.90;14.87;;;;;;;6.41;57.83;100474.03;7822362;32;38992;-84
2023/04/10 03:19:22;;;;;;;25.60;13.93;;;;;;;6.45;57.70;100480.66;7822299;32;39974;-88
2023/04/10 03:23:38;;;;;;;23.08;14.02;;;;;;;6.41;58.07;100475.91;7822258;32;37999;-88
2023/04/10 03:27:55;;;;;;;26.75;15.32;;;;;;;6.18;58.48;100480.16;7822122;32;37480;-87
2023/04/10 03:32:11;;;;;;;26.00;14.68;;;;;;;6.18;58.59;100480.16;7821005;32;38941;-88
2023/04/10 03:36:27;;;;;;;21.87;13.38;;;;;;;6.13;58.50;100477.28;7837846;31;40606;-88
2023/04/10 03:40:44;;;;;;;25.55;14.00;;;;;;;6.30;57.68;100477.50;7849325;31;37998;-88
2023/04/10 03:45:03;;;;;;;25.37;14.20;;;;;;;6.07;58.05;100476.31;7849382;31;38030;-87
2023/04/10 03:49:19;;;;;;;27.37;15.20;;;;;;;5.96;58.11;100477.87;7849412;31;39408;-88
2023/04/10 03:53:36;;;;;;;24.60;14.18;;;;;;;5.78;58.57;100491.37;7849105;31;40898;-88
2023/04/10 03:57:52;;;;;;;27.25;14.60;;;;;;;5.86;58.47;100484.81;7849901;31;37935;-89
2023/04/10 04:02:09;;;;;;;26.73;14.30;;;;;;;5.92;57.81;100492.06;7847973;31;37903;-88
2023/04/10 04:06:26;;;;;;;28.77;15.95;;;;;;;5.80;58.11;100486.56;7849595;31;39384;-88
2023/04/10 04:10:42;;;;;;;23.73;14.23;;;;;;;5.51;59.16;100497.00;7849187;31;40087;-87
2023/04/10 04:14:58;;;;;;;31.70;16.17;;;;;;;5.76;58.69;100498.84;7848305;31;38337;-86
2023/04/10 04:19:14;;;;;;;25.80;14.50;;;;;;;5.82;58.74;100500.69;7848118;31;37300;-87
2023/04/10 04:23:31;;;;;;;29.23;15.68;;;;;;;5.73;58.96;100510.16;7848595;31;39291;-87
2023/04/10 04:27:47;;;;;;;27.42;15.57;;;;;;;5.80;58.43;100506.31;7848227;31;40894;-87
2023/04/10 04:32:03;;;;;;;28.48;16.15;;;;;;;5.93;58.07;100504.53;7849965;31;38630;-88
2023/04/10 04:36:19;;;;;;;26.98;16.77;;;;;;;5.93;58.28;100505.37;7850667;31;36932;-80
2023/04/10 04:40:35;;;;;;;30.25;16.50;;;;;;;5.70;59.03;100510.59;7853287;31;39713;-86
2023/04/10 04:44:52;;;;;;;27.60;15.63;;;;;;;5.60;59.42;100511.87;7852725;31;40126;-82
2023/04/10 04:49:08;;;;;;;26.23;15.18;;;;;;;5.42;60.12;100515.37;7856315;31;38160;-87
2023/04/10 04:53:24;;;;;;;29.23;14.87;;;;;;;5.54;59.53;100512.78;7853106;31;37462;-87
2023/04/10 04:57:40;;;;;;;27.98;15.65;;;;;;;5.35;59.65;100516.50;7847283;31;39368;-87
2023/04/10 05:01:57;;;;;;;28.50;15.38;;;;;;;5.27;59.62;100525.69;7842958;31;41589;-86
2023/04/10 05:06:13;;;;;;;24.83;13.95;;;;;;;5.42;59.44;100525.37;7844540;31;38556;-86
2023/04/10 05:10:29;;;;;;;26.30;15.27;;;;;;;5.24;60.37;100529.66;7844387;31;37868;-85
2023/04/10 05:14:46;;;;;;;30.30;15.50;;;;;;;5.34;60.17;100522.94;7844471;31;39315;-86
2023/04/10 05:19:02;;;;;;;26.87;15.50;;;;;;;5.41;60.01;100526.41;7844128;31;39829;-87
2023/04/10 05:23:18;;;;;;;29.30;15.93;;;;;;;5.54;59.60;100534.44;7844078;31;37899;-86
2023/04/10 05:27:35;;;;;;;25.17;14.98;;;;;;;5.68;59.44;100535.16;7844538;31;37947;-84
2023/04/10 05:31:51;;;;;;;26.50;15.50;;;;;;;5.64;59.70;100534.75;7837376;31;39173;-87
2023/04/10 05:36:09;;;;;;;27.25;16.02;;;;;;;5.74;60.08;100538.84;7819343;32;40749;-86
2023/04/10 05:40:27;;;;;;;30.42;16.58;;;;;;;5.68;60.91;100545.16;7820412;32;37953;-85
2023/04/10 05:44:44;;;;;;;31.58;18.25;;;;;;;5.78;61.45;100537.38;7819266;32;36831;-84
2023/04/10 05:49:01;;;;;;;29.60;16.37;;;;;;;6.03;61.01;100536.53;7820480;32;39201;-88
2023/04/10 05:53:19;;;;;;;29.87;16.60;;;;;;;5.86;61.81;100537.06;7806524;32;40111;-87
2023/04/10 05:57:35;;;;;;;26.25;15.40;;;;;;;5.87;62.15;100537.91;7820226;32;38444;-86
2023/04/10 06:01:51;;;;;;;28.98;16.52;;;;;;;6.08;61.98;100533.97;7840650;31;37699;-88
2023/04/10 06:06:07;;;;;;;27.23;16.87;;;;;;;6.43;61.31;100536.09;7820639;32;39950;-85
2023/04/10 06:10:24;;;;;;;26.60;16.15;;;;;;;6.34;61.95;100535.56;7820039;32;39916;-87
2023/04/10 06:14:40;;;;;;;31.98;17.70;;;;;;;6.06;62.69;100530.69;7820378;32;37920;-87
2023/04/10 06:18:56;;;;;;;28.77;15.75;;;;;;;6.00;61.19;100540.50;7820668;32;37848;-87
2023/04/10 06:23:13;;;;;;;27.10;15.68;;;;;;;6.14;61.16;100535.78;7820140;32;40058;-86
2023/04/10 06:27:29;;;;;;;26.80;15.35;;;;;;;5.99;62.27;100541.56;7833470;31;39653;-86
2023/04/10 06:31:45;;;;;;;25.73;14.18;;;;;;;5.67;63.72;100538.06;7846025;31;37974;-84
2023/04/10 06:36:02;;;;;;;25.23;14.48;;;;;;;6.61;61.55;100532.56;7847145;31;37211;-85
2023/04/10 06:40:19;;;;;;;26.52;14.93;;;;;;;6.47;62.33;100531.87;7845930;31;40556;-85
2023/04/10 06:44:35;;;;;;;29.23;15.80;;;;;;;6.89;60.78;100530.09;7847093;31;40005;-86
2023/04/10 06:48:51;;;;;;;21.90;14.35;;;;;;;7.20;60.69;100530.91;7820062;31;37843;-87
2023/04/10 06:53:08;;;;;;;31.27;17.52;;;;;;;7.55;60.72;100526.62;7818940;32;37162;-86
2023/04/10 06:57:24;;;;;;;28.48;17.50;;;;;;;7.96;60.54;100522.19;7819756;32;39219;-86
2023/04/10 07:01:40;;;;;;;25.77;15.75;;;;;;;8.02;59.86;100523.94;7820107;32;39839;-87
2023/04/10 07:05:57;;;;;;;31.77;17.65;;;;;;;8.58;58.60;100518.94;7836758;31;38804;-88
2023/04/10 07:10:13;;;;;;;29.42;17.85;;;;;;;8.63;59.37;100516.31;7845885;31;38671;-87
2023/04/10 07:14:31;;;;;;;24.90;15.75;;;;;;;8.84;60.31;100514.81;7831954;31;39885;-82
2023/04/10 07:18:47;;;;;;;30.30;16.17;;;;;;;9.45;58.68;100516.97;7844474;31;39948;-87
2023/04/10 07:23:04;;;;;;;26.70;16.27;;;;;;;9.36;57.01;100525.53;7848280;31;40765;-87
2023/04/10 07:27:20;;;;;;;26.62;17.33;;;;;;;9.23;57.01;100514.16;7826466;31;37144;-84
2023/04/10 07:31:36;;;;;;;28.38;18.00;;;;;;;8.87;57.73;100511.63;7819646;32;39328;-73
2023/04/10 07:35:53;;;;;;;29.75;18.12;;;;;;;8.81;60.93;100501.69;7840022;31;39965;-73
2023/04/10 07:40:10;;;;;;;33.08;19.48;;;;;;;9.21;59.17;100511.69;7846495;31;38075;-84
2023/04/10 07:44:27;;;;;;;34.10;19.12;;;;;;;9.09;57.57;100505.47;7845349;31;37242;-84
2023/04/10 07:48:43;;;;;;;33.80;19.23;;;;;;;8.69;59.55;100503.62;7834348;31;39803;-84
2023/04/10 07:53:02;;;;;;;31.33;20.83;;;;;;;9.65;58.16;100489.28;7818005;32;40906;-85
2023/04/10 07:57:18;;;;;;;34.22;20.42;;;;;;;9.81;57.22;100482.97;7819408;31;38777;-80
2023/04/10 08:01:34;;;;;;;32.45;19.48;;;;;;;10.13;57.04;100477.72;7819035;32;37359;-84
2023/04/10 08:05:51;;;;;;;36.83;21.65;;;;;;;10.37;56.07;100480.25;7823549;31;346377;-83
2023/04/10 08:10:07;;;;;;;36.75;21.10;;;;;;;10.36;55.52;100483.22;7845792;31;40759;-82
2023/04/10 08:14:24;;;;;;;36.17;20.83;;;;;;;10.16;56.83;100479.12;7845810;31;38887;-82
2023/04/10 08:18:40;;;;;;;36.13;21.52;;;;;;;10.75;54.90;100472.22;7846010;31;37862;-83
2023/04/10 08:22:56;;;;;;;29.55;18.80;;;;;;;11.07;54.59;100473.09;7845751;31;39941;-83
2023/04/10 08:27:29;;;;;;;32.00;19.60;;;;;;;11.63;52.28;100461.81;7818119;32;38719;-84
2023/04/10 08:31:45;;;;;;;32.30;18.10;;;;;;;11.74;52.98;100461.88;7816971;32;38659;-82
2023/04/10 08:36:02;;;;;;;30.40;18.30;;;;;;;12.06;52.02;100452.81;7817807;32;37319;-83
2023/04/10 08:40:18;;;;;;;32.15;18.65;;;;;;;12.03;52.07;100462.38;7817686;32;39919;-83
2023/04/10 08:44:35;;;;;;;32.05;19.10;;;;;;;11.66;52.55;100455.03;7817639;32;39982;-84
2023/04/10 08:49:00;;;;;;;27.95;17.58;;;;;;;12.18;51.59;100443.31;7817367;32;38111;-82
2023/04/10 08:53:19;;;;;;;27.50;15.63;;;;;;;11.99;50.90;100456.59;7831132;31;37200;-83
2023/04/10 08:57:39;;;;;;;23.65;14.90;;;;;;;12.65;50.75;100440.75;7832135;31;39322;-84
2023/04/10 09:02:00;;;;;;;25.58;14.65;;;;;;;12.94;48.28;100435.59;7830604;31;40839;-84
2023/04/10 09:06:16;;;;;;;24.45;13.52;;;;;;;13.00;48.17;100434.50;7848357;31;38804;-83
2023/04/10 09:10:32;;;;;;;25.48;13.48;;;;;;;12.86;47.51;100436.13;7822498;31;37311;-83
2023/04/10 09:14:52;;;;;;;23.17;13.48;;;;;;;12.87;46.31;100432.31;7820886;32;40115;-84
2023/04/10 09:19:08;;;;;;;20.15;12.82;;;;;;;13.01;46.90;100441.63;7820858;32;39902;-83
2023/04/10 09:23:24;;;;;;;22.70;13.00;;;;;;;13.06;46.89;100432.59;7820645;32;38162;-80
2023/04/10 09:27:41;;;;;;;21.08;12.05;;;;;;;13.23;47.58;100418.62;7820668;32;37145;-78
2023/04/10 09:31:59;;;;;;;25.20;11.63;;;;;;;13.13;46.68;100417.53;7820731;32;38608;-74
2023/04/10 09:36:17;;;;;;;16.50;9.77;;;;;;;13.73;45.81;100411.50;7820536;32;39681;-78
2023/04/10 09:40:33;;;;;;;16.25;9.82;;;;;;;13.99;45.78;100403.19;7820257;32;38567;-79
2023/04/10 09:44:54;;;;;;;17.67;10.65;;;;;;;14.64;42.59;100404.00;7820544;32;36996;-79
2023/04/10 09:49:10;;;;;;;15.60;9.13;;;;;;;15.09;40.81;100401.22;7819310;32;39939;-77
2023/04/10 09:53:26;;;;;;;18.52;9.52;;;;;;;14.94;40.51;100391.16;7820329;32;40691;-77
2023/04/10 09:57:43;;;;;;;16.67;8.40;;;;;;;14.58;40.17;100394.16;7818906;32;38080;-80
2023/04/10 10:02:00;;;;;;;14.93;8.05;;;;;;;14.54;40.39;100392.22;7820278;31;37113;-78
2023/04/10 10:06:16;;;;;;;13.70;8.23;;;;;;;14.18;39.19;100392.44;7838596;31;39335;-77
2023/04/10 10:10:33;;;;;;;12.25;7.25;;;;;;;13.52;40.19;100395.09;7847325;31;39955;-79
2023/04/10 10:15:09;;;;;;;10.85;6.37;;;;;;;13.36;40.59;100389.91;7847092;31;39319;-79
2023/04/10 10:19:32;;;;;;;14.70;8.55;;;;;;;13.88;40.91;100385.94;7820022;31;37076;-79
2023/04/10 10:23:52;;;;;;;12.32;7.10;;;;;;;13.81;41.05;100375.28;7820088;32;39254;-81
2023/04/10 10:28:11;;;;;;;10.25;6.12;;;;;;;14.21;40.47;100372.66;7837670;31;40851;-80
2023/04/10 10:32:28;;;;;;;10.73;6.62;;;;;;;14.83;38.24;100373.13;7846210;31;37750;-80
2023/04/10 10:36:44;;;;;;;10.70;6.35;;;;;;;15.36;36.49;100359.47;7846293;31;36967;-80
2023/04/10 10:41:05;;;;;;;10.70;6.28;;;;;;;15.88;38.07;100358.97;7847262;31;40029;-81
2023/04/10 10:45:30;;;;;;;13.40;7.75;;;;;;;15.88;36.54;100364.47;7847341;31;39658;-80
2023/04/10 10:49:56;;;;;;;13.50;8.05;;;;;;;16.17;38.27;100364.38;7837547;31;38791;-79
2023/04/10 10:54:32;;;;;;;14.57;8.07;;;;;;;15.95;36.81;100364.91;7819660;32;36967;-79
2023/04/10 10:58:48;;;;;;;11.85;6.93;;;;;;;15.95;37.19;100357.50;7820604;31;39949;-80
2023/04/10 11:03:07;;;;;;;13.73;7.07;;;;;;;16.06;36.70;100362.87;7836244;31;41002;-79
2023/04/10 11:07:44;;;;;;;11.95;6.93;;;;;;;16.05;37.27;100359.28;7824552;31;38746;-80
2023/04/10 11:12:00;;;;;;;17.27;7.28;;;;;;;15.88;36.68;100356.22;7819860;31;36687;-81
2023/04/10 11:16:17;;;;;;;15.68;7.57;;;;;;;15.97;36.83;100354.47;7819300;32;40103;-80
2023/04/10 11:20:54;;;;;;;15.23;7.62;;;;;;;15.84;38.55;100342.22;7819132;32;40897;-78
2023/04/10 11:25:11;;;;;;;12.52;8.25;;;;;;;16.03;38.33;100339.53;7816863;32;37852;-79
2023/04/10 11:29:27;;;;;;;12.68;7.50;;;;;;;16.53;36.05;100326.16;7819016;32;36994;-79
2023/04/10 11:33:44;;;;;;;16.02;7.47;;;;;;;16.33;35.17;100334.72;7819286;31;37775;-79
2023/04/10 11:38:17;;;;;;;10.52;6.70;;;;;;;16.02;34.46;100315.88;7818836;32;39884;-80
2023/04/10 11:42:33;;;;;;;10.77;5.80;;;;;;;16.50;35.06;100314.94;7818830;32;38031;-79
2023/04/10 11:46:50;;;;;;;12.75;5.55;;;;;;;16.82;32.00;100321.59;7828683;31;36933;-79
2023/04/10 11:51:08;;;;;;;11.02;6.12;;;;;;;17.45;30.93;100317.47;7827240;31;40043;-79
2023/04/10 11:55:37;;;;;;;12.10;6.15;;;;;;;17.48;31.55;100322.37;7827495;31;40039;-80
2023/04/10 11:59:53;;;;;;;10.90;5.32;;;;;;;17.34;31.30;100305.81;7825338;31;37774;-80
2023/04/10 12:04:15;;;;;;;9.13;5.60;;;;;;;17.73;31.43;100295.41;7826163;31;36184;-80
2023/04/10 12:08:35;;;;;;;10.50;6.00;;;;;;;17.45;30.75;100290.72;7822972;31;40179;-80
2023/04/10 12:12:52;;;;;;;10.00;6.05;;;;;;;17.97;30.16;100285.00;7818580;32;40119;-80
2023/04/10 12:17:09;;;;;;;10.00;5.90;;;;;;;18.08;30.41;100280.06;7843247;31;38034;-80
2023/04/10 12:21:26;;;;;;;11.38;6.68;;;;;;;18.68;28.14;100264.28;7845830;31;37022;-80
2023/04/10 12:25:42;;;;;;;11.23;6.50;;;;;;;19.05;29.23;100259.53;7845838;31;39884;-79
2023/04/10 12:29:59;;;;;;;11.95;6.93;;;;;;;19.38;28.85;100253.66;7845625;31;40981;-80
2023/04/10 12:34:18;;;;;;;13.32;7.37;;;;;;;19.50;27.80;100246.34;7845510;31;37961;-80
2023/04/10 12:38:37;;;;;;;11.12;6.57;;;;;;;19.12;29.12;100241.34;7829901;31;37735;-80
2023/04/10 12:42:53;;;;;;;12.23;7.00;;;;;;;19.52;29.28;100227.53;7821420;32;39106;-79
2023/04/10 12:47:09;;;;;;;12.70;7.32;;;;;;;18.79;30.17;100226.22;7820994;32;41003;-78
2023/04/10 12:51:48;;;;;;;14.85;7.72;;;;;;;18.05;30.95;100225.50;7820091;32;37638;-78
2023/04/10 12:56:05;;;;;;;11.98;6.72;;;;;;;18.18;31.61;100212.81;7821028;32;37102;-77
2023/04/10 13:00:24;;;;;;;14.18;7.18;;;;;;;18.99;30.29;100203.59;7820839;32;39759;-77
2023/04/10 13:04:40;;;;;;;10.98;6.18;;;;;;;19.01;30.62;100195.78;7819597;32;40746;-78
2023/04/10 13:08:56;;;;;;;11.25;6.70;;;;;;;17.78;30.65;100190.50;7819259;32;38027;-77
2023/04/10 13:13:13;;;;;;;13.18;7.37;;;;;;;18.30;30.54;100190.97;7820826;32;37775;-78
2023/04/10 13:17:29;;;;;;;11.38;6.78;;;;;;;18.08;29.31;100185.47;7819550;32;39245;-78
2023/04/10 13:21:46;;;;;;;10.00;6.03;;;;;;;18.03;29.87;100178.12;7820576;32;40008;-77
2023/04/10 13:26:02;;;;;;;10.68;5.70;;;;;;;18.30;30.30;100179.94;7820397;32;37914;-76
2023/04/10 13:30:18;;;;;;;9.85;5.93;;;;;;;18.64;29.87;100174.94;7820684;32;37717;-79
2023/04/10 13:34:34;;;;;;;12.00;5.68;;;;;;;18.38;29.53;100157.12;7820540;32;39294;-79
2023/04/10 13:38:51;;;;;;;9.63;5.15;;;;;;;19.09;28.67;100152.75;7820135;32;40988;-78
2023/04/10 13:43:07;;;;;;;10.30;5.87;;;;;;;18.97;28.23;100145.06;7820318;32;38004;-78
2023/04/10 13:47:24;;;;;;;8.93;5.43;;;;;;;19.12;27.70;100136.34;7828962;31;38028;-78
2023/04/10 13:51:40;;;;;;;11.50;6.00;;;;;;;18.98;29.47;100132.09;7820256;32;39204;-76
2023/04/10 13:55:56;;;;;;;9.65;5.62;;;;;;;18.65;29.09;100137.94;7820317;32;39890;-76
2023/04/10 14:00:13;;;;;;;9.68;5.82;;;;;;;18.27;29.47;100122.63;7825528;31;38025;-76
2023/04/10 14:04:29;;;;;;;9.90;5.97;;;;;;;18.51;29.69;100121.47;7832232;31;36746;-75
2023/04/10 14:08:46;;;;;;;11.18;5.68;;;;;;;18.33;29.39;100118.59;7821942;31;40053;-77
2023/04/10 14:13:02;;;;;;;10.18;6.18;;;;;;;18.86;29.23;100103.09;7819824;32;39616;-78
2023/04/10 14:17:18;;;;;;;9.55;5.07;;;;;;;18.20;28.62;100112.03;7833047;31;37970;-79
2023/04/10 14:21:36;;;;;;;10.40;5.87;;;;;;;18.10;28.47;100105.94;7847330;31;37004;-79
2023/04/10 14:25:54;;;;;;;10.20;6.07;;;;;;;18.36;28.81;100093.12;7835415;31;39939;-78
2023/04/10 14:30:11;;;;;;;11.05;5.70;;;;;;;18.75;29.25;100094.28;7819796;32;40848;-80
2023/04/10 14:34:27;;;;;;;9.45;5.70;;;;;;;18.94;27.90;100077.47;7830388;31;38673;-81
2023/04/10 14:38:43;;;;;;;10.52;6.20;;;;;;;19.28;26.97;100069.53;7827252;31;37395;-78
2023/04/10 14:42:59;;;;;;;10.57;6.20;;;;;;;19.02;27.08;100073.06;7829533;31;39054;-79
2023/04/10 14:47:15;;;;;;;9.82;5.78;;;;;;;19.51;26.29;100059.19;7824629;31;40112;-79
2023/04/10 14:51:32;;;;;;;11.40;6.55;;;;;;;19.95;27.03;100056.38;7822614;31;38987;-80
2023/04/10 14:55:48;;;;;;;11.35;6.00;;;;;;;19.45;26.57;100054.94;7830504;31;37022;-78
2023/04/10 15:00:05;;;;;;;9.68;5.68;;;;;;;19.87;25.89;100050.53;7834073;31;39259;-79
2023/04/10 15:04:21;;;;;;;10.63;5.75;;;;;;;18.78;26.50;100054.13;7834042;31;40137;-77
2023/04/10 15:08:37;;;;;;;10.32;6.20;;;;;;;18.95;27.41;100043.19;7833109;31;38285;-79
2023/04/10 15:12:54;;;;;;;10.68;6.03;;;;;;;18.98;26.83;100044.47;7839673;31;37836;-79
2023/04/10 15:17:10;;;;;;;9.40;5.87;;;;;;;19.13;26.98;100044.03;7845006;31;39452;-80
2023/04/10 15:21:30;;;;;;;10.80;6.12;;;;;;;19.20;26.55;100032.50;7846783;31;40393;-79
2023/04/10 15:25:46;;;;;;;9.43;5.72;;;;;;;19.09;26.98;100029.22;7846708;31;38733;-80
2023/04/10 15:30:03;;;;;;;10.27;6.03;;;;;;;19.09;26.72;100023.72;7846705;31;36935;-80
2023/04/10 15:34:19;;;;;;;10.90;6.45;;;;;;;18.92;27.79;100029.19;7834181;31;38891;-79
2023/04/10 15:38:36;;;;;;;11.25;6.68;;;;;;;19.08;27.42;100021.25;7817758;32;40008;-80
2023/04/10 15:42:52;;;;;;;16.85;7.95;;;;;;;19.06;27.65;100021.59;7833338;31;37864;-81
2023/04/10 15:47:08;;;;;;;11.60;6.68;;;;;;;19.33;28.34;100003.06;7830797;31;36983;-81
2023/04/10 15:51:25;;;;;;;17.95;10.25;;;;;;;19.42;27.35;100005.81;7826664;31;39917;-81
2023/04/10 15:55:42;;;;;;;13.90;8.45;;;;;;;18.73;28.03;100010.94;7826055;31;40862;-79
2023/04/10 16:00:00;;;;;;;12.93;8.38;;;;;;;18.84;28.58;100005.12;7851087;31;38004;-81
2023/04/10 16:04:16;;;;;;;11.90;7.55;;;;;;;18.77;29.12;100006.37;7847770;31;36999;-81
2023/04/10 16:08:33;;;;;;;14.73;9.38;;;;;;;18.72;29.22;99995.50;7845972;31;40143;-80
2023/04/10 16:12:49;;;;;;;15.13;9.75;;;;;;;18.54;29.52;99999.31;7849249;31;41162;-81
2023/04/10 16:17:05;;;;;;;11.75;7.12;;;;;;;17.94;30.68;99998.75;7857613;31;37599;-79
2023/04/10 16:21:22;;;;;;;17.08;10.15;;;;;;;18.44;30.63;99996.84;7868205;31;37505;-81
2023/04/10 16:25:38;;;;;;;19.52;11.35;;;;;;;18.30;31.25;99995.03;7845292;31;39364;-82
2023/04/10 16:29:54;;;;;;;26.02;23.33;;;;;;;17.82;32.08;99991.03;7844463;31;39859;-82
2023/04/10 16:34:10;;;;;;;25.10;15.93;;;;;;;17.87;32.09;99998.41;7845994;31;37923;-81
2023/04/10 16:38:26;;;;;;;19.83;10.05;;;;;;;17.90;32.47;99981.25;7844351;31;38040;-81
2023/04/10 16:42:43;;;;;;;18.67;10.77;;;;;;;18.01;32.33;99982.56;7848807;31;39958;-82
2023/04/10 16:46:59;;;;;;;17.75;10.25;;;;;;;17.55;33.51;99993.94;7845065;31;41144;-82
2023/04/10 16:51:16;;;;;;;15.50;9.48;;;;;;;17.36;34.55;99994.13;7853273;31;37952;-83
2023/04/10 16:55:36;;;;;;;15.00;9.13;;;;;;;17.49;35.61;99987.75;7867998;31;36950;-80
2023/04/10 16:59:58;;;;;;;15.57;8.90;;;;;;;17.51;36.05;99985.50;7838929;31;39216;-81
2023/04/10 17:04:18;;;;;;;14.32;8.95;;;;;;;17.68;36.33;99983.97;7828762;31;40154;-81
2023/04/10 17:08:36;;;;;;;17.95;10.45;;;;;;;17.68;36.53;99982.03;7837352;31;37923;-80
2023/04/10 17:12:53;;;;;;;17.02;10.40;;;;;;;17.51;36.88;99979.97;7838024;31;37148;-77
2023/04/10 17:17:09;;;;;;;17.70;9.45;;;;;;;17.58;37.09;99988.63;7844352;31;39943;-80
2023/04/10 17:21:26;;;;;;;18.25;10.45;;;;;;;17.64;36.82;99983.78;7839228;31;39635;-85
2023/04/10 17:25:42;;;;;;;14.07;9.25;;;;;;;17.60;36.77;99983.59;7820949;32;38754;-83
2023/04/10 17:29:59;;;;;;;14.85;9.40;;;;;;;17.25;37.97;99985.31;7821316;31;37616;-84
2023/04/10 17:34:16;;;;;;;15.77;9.60;;;;;;;17.15;37.89;99983.59;7842220;31;40127;-84
2023/04/10 17:38:32;;;;;;;15.52;9.38;;;;;;;17.03;37.78;99989.62;7847683;31;39852;-84
2023/04/10 17:42:48;;;;;;;16.90;10.63;;;;;;;16.89;38.33;99986.91;7847187;31;38399;-87
2023/04/10 17:47:05;;;;;;;16.48;9.20;;;;;;;16.76;38.28;99987.72;7848519;31;37177;-83
2023/04/10 17:51:21;;;;;;;17.00;9.90;;;;;;;16.72;38.71;99986.72;7846105;31;38954;-84
2023/04/10 17:55:38;;;;;;;17.42;10.25;;;;;;;16.75;38.99;99996.28;7820160;32;39728;-86
2023/04/10 17:59:54;;;;;;;19.80;11.25;;;;;;;16.48;39.05;99989.69;7845660;31;38043;-86
2023/04/10 18:04:11;;;;;;;20.15;11.30;;;;;;;16.39;38.93;99997.84;7847949;31;37525;-86
2023/04/10 18:08:27;;;;;;;21.48;12.45;;;;;;;16.68;38.79;99996.72;7846153;31;39146;-85
2023/04/10 18:12:43;;;;;;;23.90;12.32;;;;;;;16.47;39.34;100002.66;7822111;31;40094;-85
2023/04/10 18:17:00;;;;;;;21.35;10.95;;;;;;;16.26;39.46;99999.47;7832220;31;37925;-87
2023/04/10 18:21:16;;;;;;;19.17;10.52;;;;;;;16.27;39.73;99998.34;7839372;31;37839;-87
2023/04/10 18:25:33;;;;;;;17.62;10.32;;;;;;;16.26;39.83;99993.16;7827494;31;39203;-85
2023/04/10 18:29:49;;;;;;;18.23;10.60;;;;;;;16.01;40.78;99992.53;7822245;31;40703;-85
2023/04/10 18:34:05;;;;;;;18.95;10.35;;;;;;;15.94;41.18;99997.62;7830542;31;38451;-85
2023/04/10 18:38:24;;;;;;;19.85;9.88;;;;;;;15.64;42.24;99998.91;7829159;31;36424;-85
2023/04/10 18:42:41;;;;;;;16.30;10.20;;;;;;;15.57;42.24;100002.03;7828833;31;39275;-85
2023/04/10 18:46:57;;;;;;;18.65;10.32;;;;;;;15.58;41.69;100003.69;7830764;31;40887;-85
2023/04/10 18:51:21;;;;;;;19.17;11.12;;;;;;;15.46;41.15;100006.09;7838398;31;38036;-82
2023/04/10 18:55:37;;;;;;;19.02;11.10;;;;;;;15.70;40.55;100009.53;7848113;31;37165;-83
2023/04/10 18:59:53;;;;;;;19.27;10.40;;;;;;;15.60;41.00;100006.94;7858312;31;40425;-83
2023/04/10 19:04:10;;;;;;;19.52;10.93;;;;;;;15.64;41.30;100015.41;7865895;31;38517;-83
2023/04/10 19:08:26;;;;;;;18.65;10.65;;;;;;;15.64;41.19;100013.47;7873061;31;38921;-82
2023/04/10 19:12:44;;;;;;;20.23;10.73;;;;;;;15.56;42.20;100011.41;7831856;31;37080;-83
2023/04/10 19:17:04;;;;;;;24.00;11.50;;;;;;;15.59;41.57;100008.06;7838334;31;39320;-85
2023/04/10 19:21:21;;;;;;;19.77;11.43;;;;;;;15.40;41.89;100017.16;7844885;31;39953;-84
2023/04/10 19:25:37;;;;;;;19.00;10.70;;;;;;;15.57;42.75;100021.28;7846458;31;38480;-85
2023/04/10 19:29:53;;;;;;;16.55;10.00;;;;;;;15.50;43.04;100015.34;7845841;31;37667;-82
2023/04/10 19:34:11;;;;;;;20.02;11.93;;;;;;;15.40;43.07;100017.16;7845766;31;40392;-83
2023/04/10 19:38:28;;;;;;;19.70;12.00;;;;;;;15.35;42.19;100005.41;7840979;31;39726;-83
2023/04/10 19:42:44;;;;;;;20.23;10.65;;;;;;;15.14;42.36;100007.66;7835635;31;38080;-84
2023/04/10 19:47:01;;;;;;;19.52;11.12;;;;;;;15.09;42.50;100013.22;7826497;31;37195;-85